sensor_id;sensor_type;location;lat;lon;timestamp;temperature;humidity
40758;DHT22;26462;47.384;19.218;2024-01-30T00:02:23;-1.10;99.90
40758;DHT22;26462;47.384;19.218;2024-01-30T00:04:53;-1.00;99.90
40758;DHT22;26462;47.384;19.218;2024-01-30T00:07:22;-1.00;99.90
40758;DHT22;26462;47.384;19.218;2024-01-30T00:09:51;-1.00;99.90
40758;DHT22;26462;47.384;19.218;2024-01-30T00:12:21;-0.30;99.90
40758;DHT22;26462;47.384;19.218;2024-01-30T00:14:50;-0.90;99.90
40758;DHT22;26462;47.384;19.218;2024-01-30T00:17:21;-1.00;99.90
40758;DHT22;26462;47.384;19.218;2024-01-30T00:19:52;0.50;99.90
40758;DHT22;26462;47.384;19.218;2024-01-30T00:22:21;-1.70;99.90
40758;DHT22;26462;47.384;19.218;2024-01-30T00:24:51;0.50;99.90
40758;DHT22;26462;47.384;19.218;2024-01-30T00:27:21;-1.20;99.90
40758;DHT22;26462;47.384;19.218;2024-01-30T00:29:50;-1.30;99.90
40758;DHT22;26462;47.384;19.218;2024-01-30T00:32:19;-0.30;99.90
40758;DHT22;26462;47.384;19.218;2024-01-30T00:34:50;-1.10;99.90
40758;DHT22;26462;47.384;19.218;2024-01-30T00:37:22;-1.20;99.90
40758;DHT22;26462;47.384;19.218;2024-01-30T00:39:51;-1.30;99.90
40758;DHT22;26462;47.384;19.218;2024-01-30T00:42:21;-0.90;99.90
40758;DHT22;26462;47.384;19.218;2024-01-30T00:44:54;-1.20;99.90
40758;DHT22;26462;47.384;19.218;2024-01-30T00:47:25;-1.10;99.90
40758;DHT22;26462;47.384;19.218;2024-01-30T00:49:54;-1.20;99.90
40758;DHT22;26462;47.384;19.218;2024-01-30T00:52:23;-1.30;99.90
40758;DHT22;26462;47.384;19.218;2024-01-30T00:54:54;-0.90;99.90
40758;DHT22;26462;47.384;19.218;2024-01-30T00:57:24;-0.40;99.90
40758;DHT22;26462;47.384;19.218;2024-01-30T00:59:54;-1.40;99.90
40758;DHT22;26462;47.384;19.218;2024-01-30T01:02:23;-1.20;99.90
40758;DHT22;26462;47.384;19.218;2024-01-30T01:04:51;-1.40;99.90
40758;DHT22;26462;47.384;19.218;2024-01-30T01:07:19;-1.30;99.90
40758;DHT22;26462;47.384;19.218;2024-01-30T01:09:48;-1.30;99.90
40758;DHT22;26462;47.384;19.218;2024-01-30T01:12:16;-1.40;99.90
40758;DHT22;26462;47.384;19.218;2024-01-30T01:14:46;-1.40;99.90
40758;DHT22;26462;47.384;19.218;2024-01-30T01:17:14;-1.40;99.90
40758;DHT22;26462;47.384;19.218;2024-01-30T01:19:43;-1.30;99.90
40758;DHT22;26462;47.384;19.218;2024-01-30T01:22:11;-1.50;99.90
40758;DHT22;26462;47.384;19.218;2024-01-30T01:24:40;-1.40;99.90
40758;DHT22;26462;47.384;19.218;2024-01-30T01:27:08;-1.40;99.90
40758;DHT22;26462;47.384;19.218;2024-01-30T01:29:38;-1.40;99.90
40758;DHT22;26462;47.384;19.218;2024-01-30T01:32:07;-1.50;99.90
40758;DHT22;26462;47.384;19.218;2024-01-30T01:34:36;-1.50;99.90
40758;DHT22;26462;47.384;19.218;2024-01-30T01:37:04;-1.40;99.90
40758;DHT22;26462;47.384;19.218;2024-01-30T01:39:33;-1.50;99.90
40758;DHT22;26462;47.384;19.218;2024-01-30T01:42:01;-1.60;99.90
40758;DHT22;26462;47.384;19.218;2024-01-30T01:44:30;-1.60;99.90
40758;DHT22;26462;47.384;19.218;2024-01-30T01:46:58;-1.60;99.90
40758;DHT22;26462;47.384;19.218;2024-01-30T01:49:29;-1.50;99.90
40758;DHT22;26462;47.384;19.218;2024-01-30T01:51:58;-1.60;99.90
40758;DHT22;26462;47.384;19.218;2024-01-30T01:54:28;-1.60;99.90
40758;DHT22;26462;47.384;19.218;2024-01-30T01:56:57;-1.50;99.90
40758;DHT22;26462;47.384;19.218;2024-01-30T01:59:26;-1.50;99.90
40758;DHT22;26462;47.384;19.218;2024-01-30T02:01:55;-1.50;99.90
40758;DHT22;26462;47.384;19.218;2024-01-30T02:04:24;-1.60;99.90
40758;DHT22;26462;47.384;19.218;2024-01-30T02:06:54;-1.60;99.90
40758;DHT22;26462;47.384;19.218;2024-01-30T02:09:23;-1.60;99.90
40758;DHT22;26462;47.384;19.218;2024-01-30T02:11:51;-1.70;99.90
40758;DHT22;26462;47.384;19.218;2024-01-30T02:14:20;-1.70;99.90
40758;DHT22;26462;47.384;19.218;2024-01-30T02:22:48;-1.70;99.90
40758;DHT22;26462;47.384;19.218;2024-01-30T02:25:17;-2.40;99.90
40758;DHT22;26462;47.384;19.218;2024-01-30T02:27:49;-1.30;99.90
40758;DHT22;26462;47.384;19.218;2024-01-30T02:30:18;-1.80;99.90
40758;DHT22;26462;47.384;19.218;2024-01-30T02:36:01;-1.80;99.90
40758;DHT22;26462;47.384;19.218;2024-01-30T02:38:31;-1.10;99.90
40758;DHT22;26462;47.384;19.218;2024-01-30T02:41:07;-1.70;99.90
40758;DHT22;26462;47.384;19.218;2024-01-30T02:43:36;-0.60;99.90
40758;DHT22;26462;47.384;19.218;2024-01-30T02:46:05;-1.60;99.90
40758;DHT22;26462;47.384;19.218;2024-01-30T02:48:36;-2.20;99.90
40758;DHT22;26462;47.384;19.218;2024-01-30T02:51:06;-1.70;99.90
40758;DHT22;26462;47.384;19.218;2024-01-30T02:53:36;-1.90;99.90
40758;DHT22;26462;47.384;19.218;2024-01-30T02:56:05;-1.20;99.90
40758;DHT22;26462;47.384;19.218;2024-01-30T02:58:37;-1.90;99.90
40758;DHT22;26462;47.384;19.218;2024-01-30T03:01:08;-0.40;99.90
40758;DHT22;26462;47.384;19.218;2024-01-30T03:03:40;-1.70;99.90
40758;DHT22;26462;47.384;19.218;2024-01-30T03:06:20;0.20;99.90
40758;DHT22;26462;47.384;19.218;2024-01-30T03:08:51;-0.80;99.90
40758;DHT22;26462;47.384;19.218;2024-01-30T03:11:22;-2.00;99.90
40758;DHT22;26462;47.384;19.218;2024-01-30T03:13:51;-1.50;99.90
40758;DHT22;26462;47.384;19.218;2024-01-30T03:16:20;-1.90;99.90
40758;DHT22;26462;47.384;19.218;2024-01-30T03:18:52;-2.10;99.90
40758;DHT22;26462;47.384;19.218;2024-01-30T03:21:21;-1.80;99.90
40758;DHT22;26462;47.384;19.218;2024-01-30T03:23:51;0.00;99.90
40758;DHT22;26462;47.384;19.218;2024-01-30T03:26:20;-1.90;99.90
40758;DHT22;26462;47.384;19.218;2024-01-30T03:28:48;-1.90;99.90
40758;DHT22;26462;47.384;19.218;2024-01-30T03:31:17;-1.90;99.90
40758;DHT22;26462;47.384;19.218;2024-01-30T03:33:45;-1.90;99.90
40758;DHT22;26462;47.384;19.218;2024-01-30T03:36:15;-2.00;99.90
40758;DHT22;26462;47.384;19.218;2024-01-30T03:38:44;-2.00;99.90
40758;DHT22;26462;47.384;19.218;2024-01-30T03:41:14;-2.00;99.90
40758;DHT22;26462;47.384;19.218;2024-01-30T03:43:42;-2.00;99.90
40758;DHT22;26462;47.384;19.218;2024-01-30T03:46:12;-2.00;99.90
40758;DHT22;26462;47.384;19.218;2024-01-30T03:48:41;-2.00;99.90
40758;DHT22;26462;47.384;19.218;2024-01-30T03:51:09;-2.00;99.90
40758;DHT22;26462;47.384;19.218;2024-01-30T03:53:41;-2.10;99.90
40758;DHT22;26462;47.384;19.218;2024-01-30T03:56:10;-2.10;99.90
40758;DHT22;26462;47.384;19.218;2024-01-30T03:58:41;-2.10;99.90
40758;DHT22;26462;47.384;19.218;2024-01-30T04:01:13;-2.00;99.90
40758;DHT22;26462;47.384;19.218;2024-01-30T04:03:42;-2.10;99.90
40758;DHT22;26462;47.384;19.218;2024-01-30T04:06:12;-2.10;99.90
40758;DHT22;26462;47.384;19.218;2024-01-30T04:08:42;-2.00;99.90
40758;DHT22;26462;47.384;19.218;2024-01-30T04:11:11;-1.90;99.90
40758;DHT22;26462;47.384;19.218;2024-01-30T04:13:41;-2.10;99.90
40758;DHT22;26462;47.384;19.218;2024-01-30T04:16:19;-2.10;99.90
40758;DHT22;26462;47.384;19.218;2024-01-30T04:18:49;-2.10;99.90
40758;DHT22;26462;47.384;19.218;2024-01-30T04:21:17;-2.10;99.90
40758;DHT22;26462;47.384;19.218;2024-01-30T04:23:46;-2.20;99.90
40758;DHT22;26462;47.384;19.218;2024-01-30T04:26:15;-2.10;99.90
40758;DHT22;26462;47.384;19.218;2024-01-30T04:28:45;-2.20;99.90
40758;DHT22;26462;47.384;19.218;2024-01-30T04:31:14;-2.20;99.90
40758;DHT22;26462;47.384;19.218;2024-01-30T04:33:42;-2.20;99.90
40758;DHT22;26462;47.384;19.218;2024-01-30T04:36:11;-2.20;99.90
40758;DHT22;26462;47.384;19.218;2024-01-30T04:38:40;-2.20;99.90
40758;DHT22;26462;47.384;19.218;2024-01-30T04:41:08;-2.20;99.90
40758;DHT22;26462;47.384;19.218;2024-01-30T04:43:37;-2.10;99.90
40758;DHT22;26462;47.384;19.218;2024-01-30T04:46:07;-2.10;99.90
40758;DHT22;26462;47.384;19.218;2024-01-30T04:48:35;-2.20;99.90
40758;DHT22;26462;47.384;19.218;2024-01-30T04:51:04;-2.20;99.90
40758;DHT22;26462;47.384;19.218;2024-01-30T04:53:32;-2.20;99.90
40758;DHT22;26462;47.384;19.218;2024-01-30T04:56:01;-2.20;99.90
40758;DHT22;26462;47.384;19.218;2024-01-30T04:58:29;-2.30;99.90
40758;DHT22;26462;47.384;19.218;2024-01-30T05:00:58;-2.30;99.90
40758;DHT22;26462;47.384;19.218;2024-01-30T05:03:27;-2.30;99.90
40758;DHT22;26462;47.384;19.218;2024-01-30T05:05:56;-2.30;99.90
40758;DHT22;26462;47.384;19.218;2024-01-30T05:08:25;-2.20;99.90
40758;DHT22;26462;47.384;19.218;2024-01-30T05:10:53;-2.20;99.90
40758;DHT22;26462;47.384;19.218;2024-01-30T05:13:21;-2.30;99.90
40758;DHT22;26462;47.384;19.218;2024-01-30T05:15:50;-2.30;99.90
40758;DHT22;26462;47.384;19.218;2024-01-30T05:18:18;-2.30;99.90
40758;DHT22;26462;47.384;19.218;2024-01-30T05:20:49;-2.30;99.90
40758;DHT22;26462;47.384;19.218;2024-01-30T05:23:17;-2.30;99.90
40758;DHT22;26462;47.384;19.218;2024-01-30T05:25:46;-1.20;99.90
40758;DHT22;26462;47.384;19.218;2024-01-30T05:28:14;-2.40;99.90
40758;DHT22;26462;47.384;19.218;2024-01-30T05:30:43;-2.40;99.90
40758;DHT22;26462;47.384;19.218;2024-01-30T05:33:12;-2.40;99.90
40758;DHT22;26462;47.384;19.218;2024-01-30T05:35:40;-2.40;99.90
40758;DHT22;26462;47.384;19.218;2024-01-30T05:38:11;-2.40;99.90
40758;DHT22;26462;47.384;19.218;2024-01-30T05:40:40;-2.30;99.90
40758;DHT22;26462;47.384;19.218;2024-01-30T05:43:09;-2.40;99.90
40758;DHT22;26462;47.384;19.218;2024-01-30T05:45:38;-2.40;99.90
40758;DHT22;26462;47.384;19.218;2024-01-30T05:48:09;-2.50;99.90
40758;DHT22;26462;47.384;19.218;2024-01-30T05:50:37;-1.30;99.90
40758;DHT22;26462;47.384;19.218;2024-01-30T05:53:06;-2.20;99.90
40758;DHT22;26462;47.384;19.218;2024-01-30T05:55:37;-1.20;99.90
40758;DHT22;26462;47.384;19.218;2024-01-30T05:58:06;-2.20;99.90
40758;DHT22;26462;47.384;19.218;2024-01-30T06:00:35;-2.50;99.90
40758;DHT22;26462;47.384;19.218;2024-01-30T06:03:04;-0.80;99.90
40758;DHT22;26462;47.384;19.218;2024-01-30T06:05:33;-2.60;99.90
40758;DHT22;26462;47.384;19.218;2024-01-30T06:08:02;-2.60;99.90
40758;DHT22;26462;47.384;19.218;2024-01-30T06:10:31;-2.60;99.90
40758;DHT22;26462;47.384;19.218;2024-01-30T06:13:02;-2.10;99.90
40758;DHT22;26462;47.384;19.218;2024-01-30T06:15:31;-2.40;99.90
40758;DHT22;26462;47.384;19.218;2024-01-30T06:18:00;-2.40;99.90
40758;DHT22;26462;47.384;19.218;2024-01-30T06:20:29;-2.50;99.90
40758;DHT22;26462;47.384;19.218;2024-01-30T06:22:58;-1.20;99.90
40758;DHT22;26462;47.384;19.218;2024-01-30T06:25:27;-2.70;99.90
40758;DHT22;26462;47.384;19.218;2024-01-30T06:27:56;-2.40;99.90
40758;DHT22;26462;47.384;19.218;2024-01-30T06:30:26;-2.30;99.90
40758;DHT22;26462;47.384;19.218;2024-01-30T06:32:55;-1.40;99.90
40758;DHT22;26462;47.384;19.218;2024-01-30T06:35:25;-2.20;99.90
40758;DHT22;26462;47.384;19.218;2024-01-30T06:37:56;-2.60;99.90
40758;DHT22;26462;47.384;19.218;2024-01-30T06:40:25;-2.50;99.90
40758;DHT22;26462;47.384;19.218;2024-01-30T06:42:54;-1.20;99.90
40758;DHT22;26462;47.384;19.218;2024-01-30T06:45:23;-1.50;99.90
40758;DHT22;26462;47.384;19.218;2024-01-30T06:47:54;-2.40;99.90
40758;DHT22;26462;47.384;19.218;2024-01-30T06:50:23;-2.40;99.90
40758;DHT22;26462;47.384;19.218;2024-01-30T06:52:52;-1.80;99.90
40758;DHT22;26462;47.384;19.218;2024-01-30T06:55:21;-2.30;99.90
40758;DHT22;26462;47.384;19.218;2024-01-30T06:57:49;-2.30;99.90
40758;DHT22;26462;47.384;19.218;2024-01-30T07:00:18;-2.20;99.90
40758;DHT22;26462;47.384;19.218;2024-01-30T07:02:47;-2.10;99.90
40758;DHT22;26462;47.384;19.218;2024-01-30T07:05:17;-2.20;99.90
40758;DHT22;26462;47.384;19.218;2024-01-30T07:07:48;-2.10;99.90
40758;DHT22;26462;47.384;19.218;2024-01-30T07:10:20;-2.00;99.90
40758;DHT22;26462;47.384;19.218;2024-01-30T07:12:49;-1.90;99.90
40758;DHT22;26462;47.384;19.218;2024-01-30T07:15:18;-2.00;99.90
40758;DHT22;26462;47.384;19.218;2024-01-30T07:17:47;-1.90;99.90
40758;DHT22;26462;47.384;19.218;2024-01-30T07:20:17;-1.80;99.90
40758;DHT22;26462;47.384;19.218;2024-01-30T07:22:47;-1.70;99.90
40758;DHT22;26462;47.384;19.218;2024-01-30T07:25:16;-1.70;99.90
40758;DHT22;26462;47.384;19.218;2024-01-30T07:27:45;-1.60;99.90
40758;DHT22;26462;47.384;19.218;2024-01-30T07:30:13;-1.60;99.90
40758;DHT22;26462;47.384;19.218;2024-01-30T07:32:44;-1.40;99.90
40758;DHT22;26462;47.384;19.218;2024-01-30T07:35:13;-1.40;99.90
40758;DHT22;26462;47.384;19.218;2024-01-30T07:37:43;-1.30;99.90
40758;DHT22;26462;47.384;19.218;2024-01-30T07:40:11;-1.20;99.90
40758;DHT22;26462;47.384;19.218;2024-01-30T07:42:40;-1.20;99.90
40758;DHT22;26462;47.384;19.218;2024-01-30T07:45:09;-1.10;99.90
40758;DHT22;26462;47.384;19.218;2024-01-30T07:47:37;-1.10;99.90
40758;DHT22;26462;47.384;19.218;2024-01-30T07:50:07;-1.00;99.90
40758;DHT22;26462;47.384;19.218;2024-01-30T07:52:36;-0.90;99.90
40758;DHT22;26462;47.384;19.218;2024-01-30T07:55:08;-0.90;99.90
40758;DHT22;26462;47.384;19.218;2024-01-30T07:57:38;-0.70;99.90
40758;DHT22;26462;47.384;19.218;2024-01-30T08:00:07;-0.70;99.90
40758;DHT22;26462;47.384;19.218;2024-01-30T08:02:38;-0.70;99.90
40758;DHT22;26462;47.384;19.218;2024-01-30T08:05:15;-0.60;99.90
40758;DHT22;26462;47.384;19.218;2024-01-30T08:07:43;-0.50;99.90
40758;DHT22;26462;47.384;19.218;2024-01-30T08:10:43;-0.40;99.90
40758;DHT22;26462;47.384;19.218;2024-01-30T08:13:12;-0.20;99.90
40758;DHT22;26462;47.384;19.218;2024-01-30T08:15:46;-0.30;99.90
40758;DHT22;26462;47.384;19.218;2024-01-30T08:27:37;0.30;99.90
40758;DHT22;26462;47.384;19.218;2024-01-30T08:35:34;0.40;99.90
40758;DHT22;26462;47.384;19.218;2024-01-30T08:38:04;0.30;99.90
40758;DHT22;26462;47.384;19.218;2024-01-30T08:40:34;0.50;99.90
40758;DHT22;26462;47.384;19.218;2024-01-30T08:43:10;0.60;99.90
40758;DHT22;26462;47.384;19.218;2024-01-30T08:45:44;2.40;99.90
40758;DHT22;26462;47.384;19.218;2024-01-30T08:52:34;1.00;99.90
40758;DHT22;26462;47.384;19.218;2024-01-30T09:02:39;1.00;99.90
40758;DHT22;26462;47.384;19.218;2024-01-30T09:05:20;1.20;99.90
40758;DHT22;26462;47.384;19.218;2024-01-30T09:07:53;0.90;99.90
40758;DHT22;26462;47.384;19.218;2024-01-30T09:10:22;1.30;99.90
40758;DHT22;26462;47.384;19.218;2024-01-30T09:12:51;0.10;99.90
40758;DHT22;26462;47.384;19.218;2024-01-30T09:15:19;1.60;99.90
40758;DHT22;26462;47.384;19.218;2024-01-30T09:17:53;1.50;99.90
40758;DHT22;26462;47.384;19.218;2024-01-30T09:20:21;1.70;99.90
40758;DHT22;26462;47.384;19.218;2024-01-30T09:22:50;1.70;99.90
40758;DHT22;26462;47.384;19.218;2024-01-30T09:25:18;1.70;99.90
40758;DHT22;26462;47.384;19.218;2024-01-30T09:27:46;1.70;99.90
40758;DHT22;26462;47.384;19.218;2024-01-30T09:30:16;1.90;99.90
40758;DHT22;26462;47.384;19.218;2024-01-30T09:32:44;2.00;99.90
40758;DHT22;26462;47.384;19.218;2024-01-30T09:35:14;2.10;99.90
40758;DHT22;26462;47.384;19.218;2024-01-30T09:37:43;2.10;99.90
40758;DHT22;26462;47.384;19.218;2024-01-30T09:40:12;2.10;99.90
40758;DHT22;26462;47.384;19.218;2024-01-30T09:42:42;2.20;99.90
40758;DHT22;26462;47.384;19.218;2024-01-30T09:45:14;2.30;99.90
40758;DHT22;26462;47.384;19.218;2024-01-30T09:47:43;2.40;99.90
40758;DHT22;26462;47.384;19.218;2024-01-30T09:50:15;2.40;99.90
40758;DHT22;26462;47.384;19.218;2024-01-30T09:52:44;2.50;99.90
40758;DHT22;26462;47.384;19.218;2024-01-30T09:55:13;2.60;99.90
40758;DHT22;26462;47.384;19.218;2024-01-30T09:57:42;2.70;99.90
40758;DHT22;26462;47.384;19.218;2024-01-30T10:00:12;2.70;99.90
40758;DHT22;26462;47.384;19.218;2024-01-30T10:02:40;2.70;99.90
40758;DHT22;26462;47.384;19.218;2024-01-30T10:05:09;2.90;99.90
40758;DHT22;26462;47.384;19.218;2024-01-30T10:07:50;2.90;99.90
40758;DHT22;26462;47.384;19.218;2024-01-30T10:10:19;2.90;99.90
40758;DHT22;26462;47.384;19.218;2024-01-30T10:12:48;2.90;99.90
40758;DHT22;26462;47.384;19.218;2024-01-30T10:15:18;2.90;99.90
40758;DHT22;26462;47.384;19.218;2024-01-30T10:17:46;3.10;99.90
40758;DHT22;26462;47.384;19.218;2024-01-30T10:20:14;2.90;99.90
40758;DHT22;26462;47.384;19.218;2024-01-30T10:22:49;2.80;99.90
40758;DHT22;26462;47.384;19.218;2024-01-30T10:25:18;2.90;99.90
40758;DHT22;26462;47.384;19.218;2024-01-30T10:27:47;3.10;99.90
40758;DHT22;26462;47.384;19.218;2024-01-30T10:30:15;3.30;99.90
40758;DHT22;26462;47.384;19.218;2024-01-30T10:32:44;3.30;99.90
40758;DHT22;26462;47.384;19.218;2024-01-30T10:35:12;3.50;99.90
40758;DHT22;26462;47.384;19.218;2024-01-30T10:37:43;3.70;99.90
40758;DHT22;26462;47.384;19.218;2024-01-30T10:40:15;3.60;99.90
40758;DHT22;26462;47.384;19.218;2024-01-30T10:42:45;3.40;99.90
40758;DHT22;26462;47.384;19.218;2024-01-30T10:45:14;3.40;99.90
40758;DHT22;26462;47.384;19.218;2024-01-30T10:47:48;3.80;99.90
40758;DHT22;26462;47.384;19.218;2024-01-30T10:50:17;3.70;99.90
40758;DHT22;26462;47.384;19.218;2024-01-30T10:52:47;3.80;99.90
40758;DHT22;26462;47.384;19.218;2024-01-30T10:55:18;3.60;99.90
40758;DHT22;26462;47.384;19.218;2024-01-30T10:57:47;3.70;99.90
40758;DHT22;26462;47.384;19.218;2024-01-30T11:00:17;3.60;99.90
40758;DHT22;26462;47.384;19.218;2024-01-30T11:02:49;3.40;99.90
40758;DHT22;26462;47.384;19.218;2024-01-30T11:05:24;3.70;99.90
40758;DHT22;26462;47.384;19.218;2024-01-30T11:07:59;3.90;99.90
40758;DHT22;26462;47.384;19.218;2024-01-30T11:10:46;4.20;99.90
40758;DHT22;26462;47.384;19.218;2024-01-30T11:13:15;4.20;99.90
40758;DHT22;26462;47.384;19.218;2024-01-30T11:15:44;3.20;99.90
40758;DHT22;26462;47.384;19.218;2024-01-30T11:18:23;4.20;99.90
40758;DHT22;26462;47.384;19.218;2024-01-30T11:20:52;4.20;99.90
40758;DHT22;26462;47.384;19.218;2024-01-30T11:23:24;4.30;99.90
40758;DHT22;26462;47.384;19.218;2024-01-30T11:25:56;4.40;99.90
40758;DHT22;26462;47.384;19.218;2024-01-30T11:28:32;4.40;99.90
40758;DHT22;26462;47.384;19.218;2024-01-30T11:31:05;4.40;99.90
40758;DHT22;26462;47.384;19.218;2024-01-30T11:33:35;4.40;99.90
40758;DHT22;26462;47.384;19.218;2024-01-30T11:36:04;4.50;99.90
40758;DHT22;26462;47.384;19.218;2024-01-30T11:38:34;4.70;99.90
40758;DHT22;26462;47.384;19.218;2024-01-30T11:41:04;4.60;99.90
40758;DHT22;26462;47.384;19.218;2024-01-30T11:43:33;4.60;99.90
40758;DHT22;26462;47.384;19.218;2024-01-30T11:46:02;4.50;99.90
40758;DHT22;26462;47.384;19.218;2024-01-30T11:48:30;4.50;99.90
40758;DHT22;26462;47.384;19.218;2024-01-30T11:50:59;4.50;99.90
40758;DHT22;26462;47.384;19.218;2024-01-30T11:53:28;4.60;99.90
40758;DHT22;26462;47.384;19.218;2024-01-30T11:55:56;4.60;99.90
40758;DHT22;26462;47.384;19.218;2024-01-30T11:58:26;4.80;99.90
40758;DHT22;26462;47.384;19.218;2024-01-30T12:00:55;4.80;99.90
40758;DHT22;26462;47.384;19.218;2024-01-30T12:03:24;4.70;99.90
40758;DHT22;26462;47.384;19.218;2024-01-30T12:05:56;4.80;99.90
40758;DHT22;26462;47.384;19.218;2024-01-30T12:08:26;4.90;99.90
40758;DHT22;26462;47.384;19.218;2024-01-30T12:10:56;4.90;99.90
40758;DHT22;26462;47.384;19.218;2024-01-30T12:13:28;5.00;99.90
40758;DHT22;26462;47.384;19.218;2024-01-30T12:15:59;5.00;99.90
40758;DHT22;26462;47.384;19.218;2024-01-30T12:18:28;5.10;99.90
40758;DHT22;26462;47.384;19.218;2024-01-30T12:20:58;5.00;99.90
40758;DHT22;26462;47.384;19.218;2024-01-30T12:23:28;5.00;99.90
40758;DHT22;26462;47.384;19.218;2024-01-30T12:25:57;5.10;99.90
40758;DHT22;26462;47.384;19.218;2024-01-30T12:28:27;5.20;99.90
40758;DHT22;26462;47.384;19.218;2024-01-30T12:30:56;5.10;99.90
40758;DHT22;26462;47.384;19.218;2024-01-30T12:33:26;5.10;99.90
40758;DHT22;26462;47.384;19.218;2024-01-30T12:35:56;5.10;99.90
40758;DHT22;26462;47.384;19.218;2024-01-30T12:38:30;5.00;99.90
40758;DHT22;26462;47.384;19.218;2024-01-30T12:40:58;5.00;99.90
40758;DHT22;26462;47.384;19.218;2024-01-30T12:43:29;5.20;99.90
40758;DHT22;26462;47.384;19.218;2024-01-30T12:46:05;5.10;99.90
40758;DHT22;26462;47.384;19.218;2024-01-30T12:48:34;5.10;99.90
40758;DHT22;26462;47.384;19.218;2024-01-30T12:51:03;5.10;99.90
40758;DHT22;26462;47.384;19.218;2024-01-30T12:53:31;5.10;99.90
40758;DHT22;26462;47.384;19.218;2024-01-30T12:56:00;5.10;99.90
40758;DHT22;26462;47.384;19.218;2024-01-30T12:58:29;5.10;99.90
40758;DHT22;26462;47.384;19.218;2024-01-30T13:00:58;5.20;99.90
40758;DHT22;26462;47.384;19.218;2024-01-30T13:03:27;5.10;99.90
40758;DHT22;26462;47.384;19.218;2024-01-30T13:05:55;5.10;99.90
40758;DHT22;26462;47.384;19.218;2024-01-30T13:08:23;5.10;99.90
40758;DHT22;26462;47.384;19.218;2024-01-30T13:10:52;5.10;99.90
40758;DHT22;26462;47.384;19.218;2024-01-30T13:13:20;5.10;99.90
40758;DHT22;26462;47.384;19.218;2024-01-30T13:15:50;5.10;99.90
40758;DHT22;26462;47.384;19.218;2024-01-30T13:18:19;5.10;99.90
40758;DHT22;26462;47.384;19.218;2024-01-30T13:20:47;5.10;99.90
40758;DHT22;26462;47.384;19.218;2024-01-30T13:23:16;5.10;99.90
40758;DHT22;26462;47.384;19.218;2024-01-30T13:25:44;5.00;99.90
40758;DHT22;26462;47.384;19.218;2024-01-30T13:28:12;5.10;99.90
40758;DHT22;26462;47.384;19.218;2024-01-30T13:30:41;5.10;99.90
40758;DHT22;26462;47.384;19.218;2024-01-30T13:33:10;5.00;99.90
40758;DHT22;26462;47.384;19.218;2024-01-30T13:35:39;5.00;99.90
40758;DHT22;26462;47.384;19.218;2024-01-30T13:38:07;4.90;99.90
40758;DHT22;26462;47.384;19.218;2024-01-30T13:40:36;4.90;99.90
40758;DHT22;26462;47.384;19.218;2024-01-30T13:43:04;4.90;99.90
40758;DHT22;26462;47.384;19.218;2024-01-30T13:45:33;4.90;99.90
40758;DHT22;26462;47.384;19.218;2024-01-30T13:48:02;5.00;99.90
40758;DHT22;26462;47.384;19.218;2024-01-30T13:50:32;5.00;99.90
40758;DHT22;26462;47.384;19.218;2024-01-30T13:53:02;4.90;99.90
40758;DHT22;26462;47.384;19.218;2024-01-30T13:55:34;5.00;99.90
40758;DHT22;26462;47.384;19.218;2024-01-30T13:58:03;4.90;99.90
40758;DHT22;26462;47.384;19.218;2024-01-30T14:00:32;4.90;99.90
40758;DHT22;26462;47.384;19.218;2024-01-30T14:03:01;4.80;99.90
40758;DHT22;26462;47.384;19.218;2024-01-30T14:05:32;4.80;99.90
40758;DHT22;26462;47.384;19.218;2024-01-30T14:08:00;4.80;99.90
40758;DHT22;26462;47.384;19.218;2024-01-30T14:10:29;4.80;99.90
40758;DHT22;26462;47.384;19.218;2024-01-30T14:12:58;4.70;99.90
40758;DHT22;26462;47.384;19.218;2024-01-30T14:15:26;4.70;99.90
40758;DHT22;26462;47.384;19.218;2024-01-30T14:17:56;4.70;99.90
40758;DHT22;26462;47.384;19.218;2024-01-30T14:20:26;4.70;99.90
40758;DHT22;26462;47.384;19.218;2024-01-30T14:22:56;4.60;99.90
40758;DHT22;26462;47.384;19.218;2024-01-30T14:25:24;4.60;99.90
40758;DHT22;26462;47.384;19.218;2024-01-30T14:27:53;4.60;99.90
40758;DHT22;26462;47.384;19.218;2024-01-30T14:30:24;4.60;99.90
40758;DHT22;26462;47.384;19.218;2024-01-30T14:32:53;4.50;99.90
40758;DHT22;26462;47.384;19.218;2024-01-30T14:35:23;4.60;99.90
40758;DHT22;26462;47.384;19.218;2024-01-30T14:37:51;4.40;99.90
40758;DHT22;26462;47.384;19.218;2024-01-30T14:40:22;4.00;99.90
40758;DHT22;26462;47.384;19.218;2024-01-30T14:42:50;4.30;99.90
40758;DHT22;26462;47.384;19.218;2024-01-30T14:45:19;4.30;99.90
40758;DHT22;26462;47.384;19.218;2024-01-30T14:47:49;4.30;99.90
40758;DHT22;26462;47.384;19.218;2024-01-30T14:50:18;4.20;99.90
40758;DHT22;26462;47.384;19.218;2024-01-30T14:52:47;4.20;99.90
40758;DHT22;26462;47.384;19.218;2024-01-30T14:55:15;4.20;99.90
40758;DHT22;26462;47.384;19.218;2024-01-30T14:57:46;4.20;99.90
40758;DHT22;26462;47.384;19.218;2024-01-30T15:00:16;4.10;99.90
40758;DHT22;26462;47.384;19.218;2024-01-30T15:02:45;4.10;99.90
40758;DHT22;26462;47.384;19.218;2024-01-30T15:05:14;4.10;99.90
40758;DHT22;26462;47.384;19.218;2024-01-30T15:07:43;4.10;99.90
40758;DHT22;26462;47.384;19.218;2024-01-30T15:10:12;3.90;99.90
40758;DHT22;26462;47.384;19.218;2024-01-30T15:12:41;3.90;99.90
40758;DHT22;26462;47.384;19.218;2024-01-30T15:15:11;3.80;99.90
40758;DHT22;26462;47.384;19.218;2024-01-30T15:17:39;3.80;99.90
40758;DHT22;26462;47.384;19.218;2024-01-30T15:20:08;3.70;99.90
40758;DHT22;26462;47.384;19.218;2024-01-30T15:22:37;3.70;99.90
40758;DHT22;26462;47.384;19.218;2024-01-30T15:25:07;3.60;99.90
40758;DHT22;26462;47.384;19.218;2024-01-30T15:27:36;3.60;99.90
40758;DHT22;26462;47.384;19.218;2024-01-30T15:30:05;3.50;99.90
40758;DHT22;26462;47.384;19.218;2024-01-30T15:32:35;3.40;99.90
40758;DHT22;26462;47.384;19.218;2024-01-30T15:35:05;3.30;99.90
40758;DHT22;26462;47.384;19.218;2024-01-30T15:37:34;3.20;99.90
40758;DHT22;26462;47.384;19.218;2024-01-30T15:40:03;3.20;99.90
40758;DHT22;26462;47.384;19.218;2024-01-30T15:42:33;3.10;99.90
40758;DHT22;26462;47.384;19.218;2024-01-30T15:45:03;2.90;99.90
40758;DHT22;26462;47.384;19.218;2024-01-30T15:47:31;2.90;99.90
40758;DHT22;26462;47.384;19.218;2024-01-30T15:50:02;2.80;99.90
40758;DHT22;26462;47.384;19.218;2024-01-30T15:52:31;2.80;99.90
40758;DHT22;26462;47.384;19.218;2024-01-30T15:55:00;2.70;99.90
40758;DHT22;26462;47.384;19.218;2024-01-30T15:57:28;2.60;99.90
40758;DHT22;26462;47.384;19.218;2024-01-30T15:59:57;2.50;99.90
40758;DHT22;26462;47.384;19.218;2024-01-30T16:02:26;2.50;99.90
40758;DHT22;26462;47.384;19.218;2024-01-30T16:04:55;2.40;99.90
40758;DHT22;26462;47.384;19.218;2024-01-30T16:07:25;2.40;99.90
40758;DHT22;26462;47.384;19.218;2024-01-30T16:09:53;2.40;99.90
40758;DHT22;26462;47.384;19.218;2024-01-30T16:12:22;2.40;99.90
40758;DHT22;26462;47.384;19.218;2024-01-30T16:14:51;2.40;99.90